KCQX

Chatham Municipal Airport

Chatham, Massachusetts, USA
METAR KCQX 230752Z AUTO 00000KT 10SM OVC003 13/12 A2989 RMK AO2 SLP123 T01280122 TSNO
Observed Flight Rules
May-23 @ 07:52 UTC (47 minutes ago) Instrument Flight Rules
Visibility Clouds
10 miles
  • Overcast at 300' AGL
Temperatures Readings
Current 13°C / 55°F
Dewpoint 12°C / 54°F
Humidity 94%
Altimeter 29.89" Hg
Pressure 1012.3 hPa
Elevation 19
METAR KCQX 230752Z AUTO 00000KT 10SM OVC003 13/12 A2989 RMK AO2 SLP123 T01280122 TSNO
Observed Flight Rules
May-23 @ 07:52 UTC
(47 minutes ago)
LIFR
Clouds
  • Overcast at 300' AGL
Temperature Dewpoint
13°C / 55°F 12°C / 54°F
Humidity Altimeter Pressure
94% 29.89" Hg 1012.3 hPa